DAL1705 KPHX-KATL
Flight info
| Callsign | DAL1705 |
|---|---|
| Flight time | N/A |
| Altitude | 35000 |
| Route | BROAK1 MAXXO IRW FSM MEMFS HUTCC KNSAW RUSSA GLAVN2 |
| Aircraft | A21N/M-SDE3FGHIRWY/LB1 |
Departure
| Time | 2026-04-30 22:47 |
|---|---|
| Airport | Phoenix Sky Harbor International Airport (KPHX) |
Arrival
| Time | N/A |
|---|---|
| Airport | Hartsfield Jackson Atlanta International Airport (KATL) |
| Time | Latitude | Longitude | Altitude | Speed | Heading |
|---|---|---|---|---|---|
| 2026-04-30 22:30 | 33.43423 | -112.00942 | 1145 ft | 0 kts | 90° |
| 2026-04-30 22:37 | 33.43421 | -112.00974 | 1145 ft | 2 kts | 64° |
| 2026-04-30 22:37 | 33.43412 | -112.00990 | 1145 ft | 2 kts | 41° |
| 2026-04-30 22:37 | 33.43405 | -112.01015 | 1145 ft | 2 kts | 134° |
| 2026-04-30 22:38 | 33.43386 | -112.01009 | 1145 ft | 5 kts | 172° |
| 2026-04-30 22:38 | 33.43353 | -112.01009 | 1145 ft | 0 kts | 180° |
| 2026-04-30 22:41 | 33.43351 | -112.01009 | 1145 ft | 1 kts | 180° |
| 2026-04-30 22:42 | 33.43215 | -112.00851 | 1145 ft | 14 kts | 90° |
| 2026-04-30 22:43 | 33.43214 | -112.00583 | 1145 ft | 17 kts | 91° |
| 2026-04-30 22:43 | 33.43213 | -112.00267 | 1144 ft | 20 kts | 90° |
| 2026-04-30 22:44 | 33.43213 | -111.99920 | 1144 ft | 21 kts | 90° |
| 2026-04-30 22:45 | 33.43122 | -111.99342 | 1144 ft | 12 kts | 209° |
| 2026-04-30 22:45 | 33.43099 | -111.99793 | 1144 ft | 80 kts | 269° |
| 2026-04-30 22:46 | 33.43108 | -112.02122 | 1324 ft | 176 kts | 269° |
| 2026-04-30 22:47 | 33.42610 | -112.08024 | 3286 ft | 196 kts | 241° |
| 2026-04-30 22:47 | 33.40315 | -112.10098 | 3720 ft | 221 kts | 206° |
| 2026-04-30 22:48 | 33.37270 | -112.11590 | 4181 ft | 252 kts | 201° |
| 2026-04-30 22:49 | 33.31992 | -112.14147 | 5380 ft | 284 kts | 202° |
| 2026-04-30 22:49 | 33.26679 | -112.12820 | 7280 ft | 283 kts | 135° |
| 2026-04-30 22:50 | 33.24596 | -112.04195 | 9644 ft | 297 kts | 81° |
| 2026-04-30 22:51 | 33.25246 | -111.99253 | 10584 ft | 313 kts | 82° |
| 2026-04-30 22:51 | 33.26028 | -111.93900 | 11167 ft | 341 kts | 75° |
| 2026-04-30 22:52 | 33.26848 | -111.91205 | 11693 ft | 346 kts | 66° |
| 2026-04-30 22:52 | 33.29044 | -111.86076 | 12895 ft | 351 kts | 62° |
| 2026-04-30 22:53 | 33.31347 | -111.80886 | 13992 ft | 357 kts | 62° |
| 2026-04-30 22:53 | 33.33673 | -111.75584 | 15074 ft | 363 kts | 63° |
| 2026-04-30 22:53 | 33.34860 | -111.72870 | 15604 ft | 365 kts | 63° |
| 2026-04-30 22:54 | 33.37211 | -111.67474 | 16601 ft | 371 kts | 63° |
| 2026-04-30 22:55 | 33.40837 | -111.59133 | 18020 ft | 380 kts | 63° |
| 2026-04-30 22:55 | 33.43133 | -111.53428 | 18911 ft | 386 kts | 68° |
| 2026-04-30 22:56 | 33.45080 | -111.47356 | 19732 ft | 392 kts | 69° |
| 2026-04-30 22:56 | 33.47989 | -111.38092 | 20933 ft | 402 kts | 69° |
| 2026-04-30 22:57 | 33.49985 | -111.31743 | 21719 ft | 408 kts | 69° |
| 2026-04-30 22:57 | 33.51997 | -111.25338 | 22484 ft | 413 kts | 69° |
| 2026-04-30 22:58 | 33.53976 | -111.18850 | 23168 ft | 418 kts | 71° |
| 2026-04-30 22:59 | 33.56805 | -111.08677 | 24034 ft | 430 kts | 72° |
| 2026-04-30 22:59 | 33.59705 | -110.98277 | 24769 ft | 444 kts | 72° |